sensor_id;sensor_type;location;lat;lon;timestamp;P1;durP1;ratioP1;P2;durP2;ratioP2
20890;SDS011;10605;52.968;8.844;2023-05-01T00:02:22;15.27;;;10.65;;
20890;SDS011;10605;52.968;8.844;2023-05-01T00:04:48;11.65;;;10.02;;
20890;SDS011;10605;52.968;8.844;2023-05-01T00:07:13;18.13;;;10.05;;
20890;SDS011;10605;52.968;8.844;2023-05-01T00:09:40;14.77;;;10.10;;
20890;SDS011;10605;52.968;8.844;2023-05-01T00:12:06;15.98;;;10.20;;
20890;SDS011;10605;52.968;8.844;2023-05-01T00:14:31;18.92;;;10.93;;
20890;SDS011;10605;52.968;8.844;2023-05-01T00:16:57;14.55;;;9.20;;
20890;SDS011;10605;52.968;8.844;2023-05-01T00:19:23;18.98;;;10.27;;
20890;SDS011;10605;52.968;8.844;2023-05-01T00:21:48;13.27;;;9.53;;
20890;SDS011;10605;52.968;8.844;2023-05-01T00:24:16;15.75;;;9.48;;
20890;SDS011;10605;52.968;8.844;2023-05-01T00:26:42;12.65;;;9.95;;
20890;SDS011;10605;52.968;8.844;2023-05-01T00:29:09;12.80;;;8.75;;
20890;SDS011;10605;52.968;8.844;2023-05-01T00:31:35;13.80;;;9.65;;
20890;SDS011;10605;52.968;8.844;2023-05-01T00:34:01;11.48;;;9.57;;
20890;SDS011;10605;52.968;8.844;2023-05-01T00:36:26;14.50;;;9.65;;
20890;SDS011;10605;52.968;8.844;2023-05-01T00:38:52;17.90;;;10.18;;
20890;SDS011;10605;52.968;8.844;2023-05-01T00:41:17;15.38;;;10.07;;
20890;SDS011;10605;52.968;8.844;2023-05-01T00:43:43;11.77;;;9.95;;
20890;SDS011;10605;52.968;8.844;2023-05-01T00:46:09;23.40;;;10.32;;
20890;SDS011;10605;52.968;8.844;2023-05-01T00:48:35;16.88;;;9.90;;
20890;SDS011;10605;52.968;8.844;2023-05-01T00:51:02;15.68;;;9.77;;
20890;SDS011;10605;52.968;8.844;2023-05-01T00:53:30;15.20;;;10.27;;
20890;SDS011;10605;52.968;8.844;2023-05-01T00:55:58;13.35;;;9.40;;
20890;SDS011;10605;52.968;8.844;2023-05-01T00:58:24;17.30;;;11.13;;
20890;SDS011;10605;52.968;8.844;2023-05-01T01:00:50;15.75;;;10.20;;
20890;SDS011;10605;52.968;8.844;2023-05-01T01:03:17;16.88;;;10.07;;
20890;SDS011;10605;52.968;8.844;2023-05-01T01:05:52;15.23;;;10.07;;
20890;SDS011;10605;52.968;8.844;2023-05-01T01:08:27;12.68;;;9.48;;
20890;SDS011;10605;52.968;8.844;2023-05-01T01:13:55;15.30;;;10.60;;
20890;SDS011;10605;52.968;8.844;2023-05-01T01:16:44;14.63;;;10.10;;
20890;SDS011;10605;52.968;8.844;2023-05-01T01:22:09;13.60;;;9.27;;
20890;SDS011;10605;52.968;8.844;2023-05-01T01:33:07;13.13;;;9.07;;
20890;SDS011;10605;52.968;8.844;2023-05-01T01:35:51;14.67;;;9.20;;
20890;SDS011;10605;52.968;8.844;2023-05-01T01:38:21;14.83;;;9.43;;
20890;SDS011;10605;52.968;8.844;2023-05-01T01:41:06;16.43;;;8.37;;
20890;SDS011;10605;52.968;8.844;2023-05-01T01:43:37;12.77;;;8.70;;
20890;SDS011;10605;52.968;8.844;2023-05-01T01:46:06;10.80;;;8.43;;
20890;SDS011;10605;52.968;8.844;2023-05-01T01:48:35;11.47;;;8.03;;
20890;SDS011;10605;52.968;8.844;2023-05-01T01:51:07;12.95;;;8.27;;
20890;SDS011;10605;52.968;8.844;2023-05-01T01:53:37;14.77;;;8.90;;
20890;SDS011;10605;52.968;8.844;2023-05-01T01:56:04;10.13;;;9.15;;
20890;SDS011;10605;52.968;8.844;2023-05-01T01:58:31;9.17;;;8.20;;
20890;SDS011;10605;52.968;8.844;2023-05-01T02:01:00;9.67;;;8.23;;
20890;SDS011;10605;52.968;8.844;2023-05-01T02:03:27;16.55;;;9.13;;
20890;SDS011;10605;52.968;8.844;2023-05-01T02:05:54;12.87;;;9.07;;
20890;SDS011;10605;52.968;8.844;2023-05-01T02:08:22;9.98;;;8.65;;
20890;SDS011;10605;52.968;8.844;2023-05-01T02:10:49;15.80;;;9.43;;
20890;SDS011;10605;52.968;8.844;2023-05-01T02:13:16;13.67;;;8.20;;
20890;SDS011;10605;52.968;8.844;2023-05-01T02:15:44;15.27;;;9.00;;
20890;SDS011;10605;52.968;8.844;2023-05-01T02:18:11;12.05;;;8.40;;
20890;SDS011;10605;52.968;8.844;2023-05-01T02:20:38;12.80;;;8.70;;
20890;SDS011;10605;52.968;8.844;2023-05-01T02:23:06;14.67;;;9.17;;
20890;SDS011;10605;52.968;8.844;2023-05-01T02:25:33;12.73;;;9.10;;
20890;SDS011;10605;52.968;8.844;2023-05-01T02:28:01;10.75;;;8.70;;
20890;SDS011;10605;52.968;8.844;2023-05-01T02:30:30;12.77;;;8.33;;
20890;SDS011;10605;52.968;8.844;2023-05-01T02:32:56;16.37;;;8.37;;
20890;SDS011;10605;52.968;8.844;2023-05-01T02:35:22;12.53;;;8.80;;
20890;SDS011;10605;52.968;8.844;2023-05-01T02:37:48;10.67;;;7.90;;
20890;SDS011;10605;52.968;8.844;2023-05-01T02:40:14;11.43;;;8.13;;
20890;SDS011;10605;52.968;8.844;2023-05-01T02:42:43;11.13;;;8.02;;
20890;SDS011;10605;52.968;8.844;2023-05-01T02:45:21;10.95;;;7.93;;
20890;SDS011;10605;52.968;8.844;2023-05-01T02:47:50;12.13;;;8.07;;
20890;SDS011;10605;52.968;8.844;2023-05-01T02:50:19;9.33;;;8.23;;
20890;SDS011;10605;52.968;8.844;2023-05-01T02:52:46;11.73;;;7.97;;
20890;SDS011;10605;52.968;8.844;2023-05-01T02:55:12;13.68;;;7.78;;
20890;SDS011;10605;52.968;8.844;2023-05-01T02:57:38;11.93;;;8.32;;
20890;SDS011;10605;52.968;8.844;2023-05-01T03:00:05;13.30;;;7.72;;
20890;SDS011;10605;52.968;8.844;2023-05-01T03:02:33;12.10;;;8.67;;
20890;SDS011;10605;52.968;8.844;2023-05-01T03:04:59;10.98;;;7.70;;
20890;SDS011;10605;52.968;8.844;2023-05-01T03:07:25;12.02;;;7.88;;
20890;SDS011;10605;52.968;8.844;2023-05-01T03:09:55;8.02;;;7.15;;
20890;SDS011;10605;52.968;8.844;2023-05-01T03:12:20;16.85;;;7.80;;
20890;SDS011;10605;52.968;8.844;2023-05-01T03:14:46;16.20;;;7.40;;
20890;SDS011;10605;52.968;8.844;2023-05-01T03:17:12;10.68;;;8.05;;
20890;SDS011;10605;52.968;8.844;2023-05-01T03:19:38;12.63;;;7.65;;
20890;SDS011;10605;52.968;8.844;2023-05-01T03:22:04;16.67;;;8.75;;
20890;SDS011;10605;52.968;8.844;2023-05-01T03:24:30;10.07;;;7.55;;
20890;SDS011;10605;52.968;8.844;2023-05-01T03:26:55;12.13;;;8.32;;
20890;SDS011;10605;52.968;8.844;2023-05-01T03:29:21;13.10;;;8.03;;
20890;SDS011;10605;52.968;8.844;2023-05-01T03:31:46;10.50;;;8.02;;
20890;SDS011;10605;52.968;8.844;2023-05-01T03:34:12;12.38;;;8.13;;
20890;SDS011;10605;52.968;8.844;2023-05-01T03:36:38;17.57;;;8.63;;
20890;SDS011;10605;52.968;8.844;2023-05-01T03:39:03;9.77;;;8.40;;
20890;SDS011;10605;52.968;8.844;2023-05-01T03:41:29;10.48;;;7.80;;
20890;SDS011;10605;52.968;8.844;2023-05-01T03:43:55;13.23;;;7.77;;
20890;SDS011;10605;52.968;8.844;2023-05-01T03:46:20;11.60;;;8.38;;
20890;SDS011;10605;52.968;8.844;2023-05-01T03:48:46;12.60;;;7.85;;
20890;SDS011;10605;52.968;8.844;2023-05-01T03:51:12;8.63;;;7.65;;
20890;SDS011;10605;52.968;8.844;2023-05-01T03:53:37;10.77;;;8.23;;
20890;SDS011;10605;52.968;8.844;2023-05-01T03:56:03;17.70;;;8.43;;
20890;SDS011;10605;52.968;8.844;2023-05-01T03:58:29;13.37;;;8.50;;
20890;SDS011;10605;52.968;8.844;2023-05-01T04:00:55;11.57;;;8.23;;
20890;SDS011;10605;52.968;8.844;2023-05-01T04:03:22;13.60;;;8.65;;
20890;SDS011;10605;52.968;8.844;2023-05-01T04:05:48;11.63;;;8.30;;
20890;SDS011;10605;52.968;8.844;2023-05-01T04:08:13;11.83;;;8.90;;
20890;SDS011;10605;52.968;8.844;2023-05-01T04:10:39;12.77;;;9.00;;
20890;SDS011;10605;52.968;8.844;2023-05-01T04:13:04;12.50;;;8.37;;
20890;SDS011;10605;52.968;8.844;2023-05-01T04:15:30;11.93;;;8.70;;
20890;SDS011;10605;52.968;8.844;2023-05-01T04:17:56;12.03;;;8.00;;
20890;SDS011;10605;52.968;8.844;2023-05-01T04:20:22;13.80;;;8.17;;
20890;SDS011;10605;52.968;8.844;2023-05-01T04:22:47;9.95;;;8.00;;
20890;SDS011;10605;52.968;8.844;2023-05-01T04:25:13;13.75;;;8.18;;
20890;SDS011;10605;52.968;8.844;2023-05-01T04:27:39;10.70;;;7.83;;
20890;SDS011;10605;52.968;8.844;2023-05-01T04:30:04;14.80;;;7.57;;
20890;SDS011;10605;52.968;8.844;2023-05-01T04:32:30;13.60;;;8.50;;
20890;SDS011;10605;52.968;8.844;2023-05-01T04:34:56;10.87;;;7.90;;
20890;SDS011;10605;52.968;8.844;2023-05-01T04:37:22;11.32;;;7.97;;
20890;SDS011;10605;52.968;8.844;2023-05-01T04:39:47;9.03;;;7.60;;
20890;SDS011;10605;52.968;8.844;2023-05-01T04:42:14;10.27;;;7.70;;
20890;SDS011;10605;52.968;8.844;2023-05-01T04:44:40;11.13;;;7.18;;
20890;SDS011;10605;52.968;8.844;2023-05-01T04:47:06;10.48;;;7.05;;
20890;SDS011;10605;52.968;8.844;2023-05-01T04:49:31;12.80;;;7.63;;
20890;SDS011;10605;52.968;8.844;2023-05-01T04:51:57;12.13;;;7.25;;
20890;SDS011;10605;52.968;8.844;2023-05-01T04:54:23;13.75;;;8.27;;
20890;SDS011;10605;52.968;8.844;2023-05-01T04:56:49;8.77;;;7.82;;
20890;SDS011;10605;52.968;8.844;2023-05-01T04:59:15;12.20;;;7.22;;
20890;SDS011;10605;52.968;8.844;2023-05-01T05:01:41;12.55;;;7.40;;
20890;SDS011;10605;52.968;8.844;2023-05-01T05:04:07;14.75;;;7.50;;
20890;SDS011;10605;52.968;8.844;2023-05-01T05:06:32;9.32;;;6.63;;
20890;SDS011;10605;52.968;8.844;2023-05-01T05:08:58;10.50;;;6.75;;
20890;SDS011;10605;52.968;8.844;2023-05-01T05:11:24;7.07;;;6.40;;
20890;SDS011;10605;52.968;8.844;2023-05-01T05:13:50;12.90;;;6.70;;
20890;SDS011;10605;52.968;8.844;2023-05-01T05:16:16;11.48;;;7.05;;
20890;SDS011;10605;52.968;8.844;2023-05-01T05:18:41;6.97;;;6.20;;
20890;SDS011;10605;52.968;8.844;2023-05-01T05:21:07;13.30;;;6.18;;
20890;SDS011;10605;52.968;8.844;2023-05-01T05:23:34;10.85;;;6.43;;
20890;SDS011;10605;52.968;8.844;2023-05-01T05:26:00;7.25;;;6.22;;
20890;SDS011;10605;52.968;8.844;2023-05-01T05:28:26;9.20;;;6.20;;
20890;SDS011;10605;52.968;8.844;2023-05-01T05:30:52;9.82;;;6.63;;
20890;SDS011;10605;52.968;8.844;2023-05-01T05:33:19;10.98;;;6.95;;
20890;SDS011;10605;52.968;8.844;2023-05-01T05:35:44;9.45;;;6.20;;
20890;SDS011;10605;52.968;8.844;2023-05-01T05:38:10;8.23;;;6.45;;
20890;SDS011;10605;52.968;8.844;2023-05-01T05:40:36;13.05;;;6.63;;
20890;SDS011;10605;52.968;8.844;2023-05-01T05:43:01;8.38;;;6.00;;
20890;SDS011;10605;52.968;8.844;2023-05-01T05:45:27;9.35;;;5.45;;
20890;SDS011;10605;52.968;8.844;2023-05-01T05:47:53;14.00;;;6.40;;
20890;SDS011;10605;52.968;8.844;2023-05-01T05:50:19;9.15;;;6.30;;
20890;SDS011;10605;52.968;8.844;2023-05-01T05:52:44;8.07;;;6.07;;
20890;SDS011;10605;52.968;8.844;2023-05-01T05:55:10;7.88;;;5.38;;
20890;SDS011;10605;52.968;8.844;2023-05-01T05:57:35;8.27;;;4.93;;
20890;SDS011;10605;52.968;8.844;2023-05-01T06:00:02;10.15;;;5.53;;
20890;SDS011;10605;52.968;8.844;2023-05-01T06:02:30;12.23;;;5.45;;
20890;SDS011;10605;52.968;8.844;2023-05-01T06:04:56;8.32;;;5.57;;
20890;SDS011;10605;52.968;8.844;2023-05-01T06:07:22;9.77;;;6.00;;
20890;SDS011;10605;52.968;8.844;2023-05-01T06:09:48;10.45;;;5.28;;
20890;SDS011;10605;52.968;8.844;2023-05-01T06:12:13;11.10;;;6.03;;
20890;SDS011;10605;52.968;8.844;2023-05-01T06:14:40;9.70;;;6.00;;
20890;SDS011;10605;52.968;8.844;2023-05-01T06:17:06;10.40;;;5.35;;
20890;SDS011;10605;52.968;8.844;2023-05-01T06:19:32;7.30;;;5.88;;
20890;SDS011;10605;52.968;8.844;2023-05-01T06:21:58;7.70;;;5.53;;
20890;SDS011;10605;52.968;8.844;2023-05-01T06:24:24;9.90;;;5.90;;
20890;SDS011;10605;52.968;8.844;2023-05-01T06:26:51;7.68;;;5.93;;
20890;SDS011;10605;52.968;8.844;2023-05-01T06:29:17;5.68;;;5.18;;
20890;SDS011;10605;52.968;8.844;2023-05-01T06:31:43;7.38;;;5.50;;
20890;SDS011;10605;52.968;8.844;2023-05-01T06:34:09;6.07;;;5.10;;
20890;SDS011;10605;52.968;8.844;2023-05-01T06:36:35;13.85;;;5.70;;
20890;SDS011;10605;52.968;8.844;2023-05-01T06:39:01;8.07;;;5.28;;
20890;SDS011;10605;52.968;8.844;2023-05-01T06:41:26;9.40;;;5.20;;
20890;SDS011;10605;52.968;8.844;2023-05-01T06:43:52;8.73;;;5.25;;
20890;SDS011;10605;52.968;8.844;2023-05-01T06:46:18;8.40;;;4.72;;
20890;SDS011;10605;52.968;8.844;2023-05-01T06:48:43;7.60;;;4.75;;
20890;SDS011;10605;52.968;8.844;2023-05-01T06:51:09;8.38;;;5.05;;
20890;SDS011;10605;52.968;8.844;2023-05-01T06:53:35;8.55;;;5.43;;
20890;SDS011;10605;52.968;8.844;2023-05-01T06:56:01;6.53;;;4.57;;
20890;SDS011;10605;52.968;8.844;2023-05-01T06:58:27;9.18;;;4.85;;
20890;SDS011;10605;52.968;8.844;2023-05-01T07:00:52;7.28;;;4.50;;
20890;SDS011;10605;52.968;8.844;2023-05-01T07:03:18;6.20;;;4.20;;
20890;SDS011;10605;52.968;8.844;2023-05-01T07:05:44;6.68;;;3.92;;
20890;SDS011;10605;52.968;8.844;2023-05-01T07:08:09;10.65;;;4.68;;
20890;SDS011;10605;52.968;8.844;2023-05-01T07:10:35;9.38;;;4.25;;
20890;SDS011;10605;52.968;8.844;2023-05-01T07:13:01;9.45;;;4.90;;
20890;SDS011;10605;52.968;8.844;2023-05-01T07:15:27;5.03;;;3.65;;
20890;SDS011;10605;52.968;8.844;2023-05-01T07:17:53;5.78;;;3.53;;
20890;SDS011;10605;52.968;8.844;2023-05-01T07:20:20;6.72;;;4.10;;
20890;SDS011;10605;52.968;8.844;2023-05-01T07:22:45;9.57;;;4.40;;
20890;SDS011;10605;52.968;8.844;2023-05-01T07:25:11;9.13;;;4.20;;
20890;SDS011;10605;52.968;8.844;2023-05-01T07:27:38;8.63;;;3.67;;
20890;SDS011;10605;52.968;8.844;2023-05-01T07:30:04;5.88;;;3.90;;
20890;SDS011;10605;52.968;8.844;2023-05-01T07:32:30;7.28;;;4.05;;
20890;SDS011;10605;52.968;8.844;2023-05-01T07:34:57;7.25;;;4.13;;
20890;SDS011;10605;52.968;8.844;2023-05-01T07:37:23;9.57;;;3.92;;
20890;SDS011;10605;52.968;8.844;2023-05-01T07:39:50;6.80;;;3.70;;
20890;SDS011;10605;52.968;8.844;2023-05-01T07:42:16;4.03;;;3.60;;
20890;SDS011;10605;52.968;8.844;2023-05-01T07:44:42;4.13;;;3.70;;
20890;SDS011;10605;52.968;8.844;2023-05-01T07:47:07;6.35;;;3.80;;
20890;SDS011;10605;52.968;8.844;2023-05-01T07:49:34;6.82;;;3.58;;
20890;SDS011;10605;52.968;8.844;2023-05-01T07:52:09;6.85;;;4.05;;
20890;SDS011;10605;52.968;8.844;2023-05-01T07:54:35;4.25;;;3.38;;
20890;SDS011;10605;52.968;8.844;2023-05-01T07:57:00;4.30;;;3.83;;
20890;SDS011;10605;52.968;8.844;2023-05-01T07:59:27;9.00;;;3.60;;
20890;SDS011;10605;52.968;8.844;2023-05-01T08:01:53;8.18;;;3.97;;
20890;SDS011;10605;52.968;8.844;2023-05-01T08:04:18;4.28;;;3.30;;
20890;SDS011;10605;52.968;8.844;2023-05-01T08:06:46;4.43;;;3.50;;
20890;SDS011;10605;52.968;8.844;2023-05-01T08:09:15;6.68;;;3.80;;
20890;SDS011;10605;52.968;8.844;2023-05-01T08:11:41;5.60;;;3.47;;
20890;SDS011;10605;52.968;8.844;2023-05-01T08:14:07;3.83;;;3.13;;
20890;SDS011;10605;52.968;8.844;2023-05-01T08:16:33;6.15;;;3.40;;
20890;SDS011;10605;52.968;8.844;2023-05-01T08:18:59;6.97;;;4.63;;
20890;SDS011;10605;52.968;8.844;2023-05-01T08:21:25;6.75;;;3.65;;
20890;SDS011;10605;52.968;8.844;2023-05-01T08:23:52;7.72;;;4.00;;
20890;SDS011;10605;52.968;8.844;2023-05-01T08:26:19;6.88;;;3.40;;
20890;SDS011;10605;52.968;8.844;2023-05-01T08:28:45;5.25;;;3.53;;
20890;SDS011;10605;52.968;8.844;2023-05-01T08:31:11;5.07;;;3.63;;
20890;SDS011;10605;52.968;8.844;2023-05-01T08:33:37;4.18;;;3.15;;
20890;SDS011;10605;52.968;8.844;2023-05-01T08:36:06;6.75;;;3.53;;
20890;SDS011;10605;52.968;8.844;2023-05-01T08:38:32;4.15;;;3.35;;
20890;SDS011;10605;52.968;8.844;2023-05-01T08:40:57;6.57;;;3.72;;
20890;SDS011;10605;52.968;8.844;2023-05-01T08:43:25;6.10;;;3.75;;
20890;SDS011;10605;52.968;8.844;2023-05-01T08:45:53;6.18;;;3.55;;
20890;SDS011;10605;52.968;8.844;2023-05-01T08:48:22;6.93;;;3.85;;
20890;SDS011;10605;52.968;8.844;2023-05-01T08:50:49;3.33;;;3.03;;
20890;SDS011;10605;52.968;8.844;2023-05-01T08:53:17;8.38;;;3.83;;
20890;SDS011;10605;52.968;8.844;2023-05-01T08:55:44;6.13;;;3.80;;
20890;SDS011;10605;52.968;8.844;2023-05-01T08:58:13;6.57;;;3.50;;
20890;SDS011;10605;52.968;8.844;2023-05-01T09:00:41;5.50;;;3.10;;
20890;SDS011;10605;52.968;8.844;2023-05-01T09:03:08;4.70;;;3.40;;
20890;SDS011;10605;52.968;8.844;2023-05-01T09:05:36;4.53;;;3.45;;
20890;SDS011;10605;52.968;8.844;2023-05-01T09:08:02;5.00;;;3.55;;
20890;SDS011;10605;52.968;8.844;2023-05-01T09:10:28;4.82;;;3.58;;
20890;SDS011;10605;52.968;8.844;2023-05-01T09:12:55;8.50;;;3.58;;
20890;SDS011;10605;52.968;8.844;2023-05-01T09:15:25;7.45;;;3.72;;
20890;SDS011;10605;52.968;8.844;2023-05-01T09:17:52;4.45;;;3.17;;
20890;SDS011;10605;52.968;8.844;2023-05-01T09:20:18;6.63;;;3.63;;
20890;SDS011;10605;52.968;8.844;2023-05-01T09:22:43;5.40;;;3.10;;
20890;SDS011;10605;52.968;8.844;2023-05-01T09:25:09;7.82;;;3.05;;
20890;SDS011;10605;52.968;8.844;2023-05-01T09:27:36;6.75;;;4.03;;
20890;SDS011;10605;52.968;8.844;2023-05-01T09:30:02;4.50;;;3.35;;
20890;SDS011;10605;52.968;8.844;2023-05-01T09:32:30;6.65;;;3.63;;
20890;SDS011;10605;52.968;8.844;2023-05-01T09:35:16;4.57;;;3.00;;
20890;SDS011;10605;52.968;8.844;2023-05-01T09:37:42;5.28;;;3.03;;
20890;SDS011;10605;52.968;8.844;2023-05-01T09:40:14;6.78;;;3.80;;
20890;SDS011;10605;52.968;8.844;2023-05-01T09:42:41;8.68;;;3.83;;
20890;SDS011;10605;52.968;8.844;2023-05-01T09:45:14;4.78;;;3.05;;
20890;SDS011;10605;52.968;8.844;2023-05-01T09:47:41;8.32;;;3.05;;
20890;SDS011;10605;52.968;8.844;2023-05-01T09:52:55;5.40;;;3.72;;
20890;SDS011;10605;52.968;8.844;2023-05-01T09:55:21;5.60;;;3.55;;
20890;SDS011;10605;52.968;8.844;2023-05-01T09:57:47;7.50;;;3.28;;
20890;SDS011;10605;52.968;8.844;2023-05-01T10:00:13;6.85;;;3.70;;
20890;SDS011;10605;52.968;8.844;2023-05-01T10:02:42;3.78;;;3.30;;
20890;SDS011;10605;52.968;8.844;2023-05-01T10:05:09;4.47;;;3.53;;
20890;SDS011;10605;52.968;8.844;2023-05-01T10:07:35;5.85;;;3.20;;
20890;SDS011;10605;52.968;8.844;2023-05-01T10:10:17;6.97;;;3.45;;
20890;SDS011;10605;52.968;8.844;2023-05-01T10:12:44;8.90;;;3.05;;
20890;SDS011;10605;52.968;8.844;2023-05-01T10:15:10;6.15;;;3.78;;
20890;SDS011;10605;52.968;8.844;2023-05-01T10:17:37;6.30;;;3.72;;
20890;SDS011;10605;52.968;8.844;2023-05-01T10:20:05;4.72;;;3.15;;
20890;SDS011;10605;52.968;8.844;2023-05-01T10:22:32;8.90;;;3.55;;
20890;SDS011;10605;52.968;8.844;2023-05-01T10:24:59;5.18;;;3.30;;
20890;SDS011;10605;52.968;8.844;2023-05-01T10:27:28;4.63;;;3.33;;
20890;SDS011;10605;52.968;8.844;2023-05-01T10:29:54;9.27;;;3.40;;
20890;SDS011;10605;52.968;8.844;2023-05-01T10:32:21;4.50;;;3.20;;
20890;SDS011;10605;52.968;8.844;2023-05-01T10:34:51;5.18;;;3.00;;
20890;SDS011;10605;52.968;8.844;2023-05-01T10:37:22;4.40;;;3.10;;
20890;SDS011;10605;52.968;8.844;2023-05-01T10:39:53;4.70;;;3.15;;
20890;SDS011;10605;52.968;8.844;2023-05-01T10:42:19;6.28;;;2.97;;
20890;SDS011;10605;52.968;8.844;2023-05-01T10:44:45;3.63;;;3.00;;
20890;SDS011;10605;52.968;8.844;2023-05-01T10:50:04;4.97;;;2.95;;
20890;SDS011;10605;52.968;8.844;2023-05-01T10:55:39;9.15;;;3.28;;
20890;SDS011;10605;52.968;8.844;2023-05-01T10:58:12;2.88;;;2.58;;
20890;SDS011;10605;52.968;8.844;2023-05-01T11:00:39;4.57;;;3.28;;
20890;SDS011;10605;52.968;8.844;2023-05-01T11:03:32;6.90;;;3.05;;
20890;SDS011;10605;52.968;8.844;2023-05-01T11:08:34;4.78;;;3.13;;
20890;SDS011;10605;52.968;8.844;2023-05-01T11:13:57;4.80;;;2.63;;
20890;SDS011;10605;52.968;8.844;2023-05-01T11:21:36;2.58;;;2.38;;
20890;SDS011;10605;52.968;8.844;2023-05-01T11:24:07;4.63;;;2.90;;
20890;SDS011;10605;52.968;8.844;2023-05-01T11:26:37;4.25;;;2.40;;
20890;SDS011;10605;52.968;8.844;2023-05-01T11:29:04;2.63;;;2.20;;
20890;SDS011;10605;52.968;8.844;2023-05-01T11:31:30;7.25;;;2.05;;
20890;SDS011;10605;52.968;8.844;2023-05-01T11:33:57;7.20;;;2.63;;
20890;SDS011;10605;52.968;8.844;2023-05-01T11:36:24;3.95;;;1.90;;
20890;SDS011;10605;52.968;8.844;2023-05-01T11:38:51;3.20;;;1.90;;
20890;SDS011;10605;52.968;8.844;2023-05-01T11:41:21;2.70;;;1.80;;
20890;SDS011;10605;52.968;8.844;2023-05-01T11:43:51;3.25;;;2.03;;
20890;SDS011;10605;52.968;8.844;2023-05-01T11:48:53;2.58;;;1.92;;
20890;SDS011;10605;52.968;8.844;2023-05-01T11:51:20;3.30;;;1.67;;
20890;SDS011;10605;52.968;8.844;2023-05-01T11:56:35;3.78;;;1.85;;
20890;SDS011;10605;52.968;8.844;2023-05-01T11:59:16;3.65;;;1.60;;
20890;SDS011;10605;52.968;8.844;2023-05-01T12:01:43;3.13;;;1.10;;
20890;SDS011;10605;52.968;8.844;2023-05-01T12:04:10;2.75;;;1.60;;
20890;SDS011;10605;52.968;8.844;2023-05-01T12:06:37;1.33;;;1.23;;
20890;SDS011;10605;52.968;8.844;2023-05-01T12:09:16;3.35;;;1.70;;
20890;SDS011;10605;52.968;8.844;2023-05-01T12:11:43;4.28;;;1.30;;
20890;SDS011;10605;52.968;8.844;2023-05-01T12:14:10;1.75;;;1.33;;
20890;SDS011;10605;52.968;8.844;2023-05-01T12:16:38;3.33;;;1.25;;
20890;SDS011;10605;52.968;8.844;2023-05-01T12:19:04;6.18;;;1.58;;
20890;SDS011;10605;52.968;8.844;2023-05-01T12:21:30;2.17;;;1.48;;
20890;SDS011;10605;52.968;8.844;2023-05-01T12:24:06;1.77;;;1.30;;
20890;SDS011;10605;52.968;8.844;2023-05-01T12:26:40;2.60;;;1.77;;
20890;SDS011;10605;52.968;8.844;2023-05-01T12:29:06;2.92;;;1.30;;
20890;SDS011;10605;52.968;8.844;2023-05-01T12:31:33;1.48;;;0.80;;
20890;SDS011;10605;52.968;8.844;2023-05-01T12:34:01;2.53;;;0.93;;
20890;SDS011;10605;52.968;8.844;2023-05-01T12:36:29;1.77;;;0.75;;
20890;SDS011;10605;52.968;8.844;2023-05-01T12:38:57;3.25;;;1.00;;
20890;SDS011;10605;52.968;8.844;2023-05-01T12:41:44;1.27;;;0.80;;
20890;SDS011;10605;52.968;8.844;2023-05-01T12:44:25;2.95;;;0.90;;
20890;SDS011;10605;52.968;8.844;2023-05-01T12:47:04;1.25;;;0.73;;
20890;SDS011;10605;52.968;8.844;2023-05-01T12:49:31;0.70;;;0.63;;
20890;SDS011;10605;52.968;8.844;2023-05-01T12:52:01;1.40;;;1.08;;
20890;SDS011;10605;52.968;8.844;2023-05-01T12:57:30;2.58;;;0.80;;
20890;SDS011;10605;52.968;8.844;2023-05-01T12:59:56;3.83;;;1.45;;
20890;SDS011;10605;52.968;8.844;2023-05-01T13:02:28;1.48;;;1.08;;
20890;SDS011;10605;52.968;8.844;2023-05-01T13:05:08;1.42;;;0.77;;
20890;SDS011;10605;52.968;8.844;2023-05-01T13:07:35;1.17;;;0.90;;
20890;SDS011;10605;52.968;8.844;2023-05-01T13:10:02;1.75;;;1.25;;
20890;SDS011;10605;52.968;8.844;2023-05-01T13:12:30;3.20;;;0.80;;
20890;SDS011;10605;52.968;8.844;2023-05-01T13:14:56;4.32;;;1.00;;
20890;SDS011;10605;52.968;8.844;2023-05-01T13:19:55;3.92;;;1.05;;
20890;SDS011;10605;52.968;8.844;2023-05-01T13:24:56;1.27;;;0.93;;
20890;SDS011;10605;52.968;8.844;2023-05-01T13:27:22;5.35;;;1.10;;
20890;SDS011;10605;52.968;8.844;2023-05-01T13:29:52;1.52;;;1.00;;
20890;SDS011;10605;52.968;8.844;2023-05-01T13:32:25;3.40;;;1.25;;
20890;SDS011;10605;52.968;8.844;2023-05-01T13:34:51;1.40;;;0.98;;
20890;SDS011;10605;52.968;8.844;2023-05-01T13:37:18;1.50;;;1.23;;
20890;SDS011;10605;52.968;8.844;2023-05-01T13:39:45;7.85;;;0.93;;
20890;SDS011;10605;52.968;8.844;2023-05-01T13:42:11;2.63;;;1.23;;
20890;SDS011;10605;52.968;8.844;2023-05-01T13:44:42;3.60;;;1.50;;
20890;SDS011;10605;52.968;8.844;2023-05-01T13:47:14;1.38;;;1.27;;
20890;SDS011;10605;52.968;8.844;2023-05-01T13:49:41;1.50;;;1.00;;
20890;SDS011;10605;52.968;8.844;2023-05-01T13:52:11;2.92;;;1.13;;
20890;SDS011;10605;52.968;8.844;2023-05-01T13:54:40;1.13;;;0.80;;
20890;SDS011;10605;52.968;8.844;2023-05-01T13:57:06;1.65;;;1.10;;
20890;SDS011;10605;52.968;8.844;2023-05-01T13:59:35;1.23;;;1.08;;
20890;SDS011;10605;52.968;8.844;2023-05-01T14:02:10;4.13;;;1.13;;
20890;SDS011;10605;52.968;8.844;2023-05-01T14:04:53;1.73;;;1.13;;
20890;SDS011;10605;52.968;8.844;2023-05-01T14:07:19;2.10;;;1.05;;
20890;SDS011;10605;52.968;8.844;2023-05-01T14:09:53;3.28;;;1.17;;
20890;SDS011;10605;52.968;8.844;2023-05-01T14:12:26;2.10;;;1.25;;
20890;SDS011;10605;52.968;8.844;2023-05-01T14:14:53;1.10;;;0.98;;
20890;SDS011;10605;52.968;8.844;2023-05-01T14:17:24;6.25;;;1.00;;
20890;SDS011;10605;52.968;8.844;2023-05-01T14:19:56;2.10;;;0.93;;
20890;SDS011;10605;52.968;8.844;2023-05-01T14:22:22;1.88;;;1.00;;
20890;SDS011;10605;52.968;8.844;2023-05-01T14:24:52;4.22;;;0.90;;
20890;SDS011;10605;52.968;8.844;2023-05-01T14:27:18;1.77;;;0.95;;
20890;SDS011;10605;52.968;8.844;2023-05-01T14:29:45;7.20;;;1.00;;
20890;SDS011;10605;52.968;8.844;2023-05-01T14:32:11;1.00;;;0.95;;
20890;SDS011;10605;52.968;8.844;2023-05-01T14:34:40;3.53;;;1.02;;
20890;SDS011;10605;52.968;8.844;2023-05-01T14:37:09;2.67;;;1.10;;
20890;SDS011;10605;52.968;8.844;2023-05-01T14:39:38;1.23;;;1.00;;
20890;SDS011;10605;52.968;8.844;2023-05-01T14:42:04;1.40;;;1.00;;
20890;SDS011;10605;52.968;8.844;2023-05-01T14:44:30;3.30;;;0.98;;
20890;SDS011;10605;52.968;8.844;2023-05-01T14:46:56;1.50;;;1.30;;
20890;SDS011;10605;52.968;8.844;2023-05-01T14:49:23;4.28;;;1.02;;
20890;SDS011;10605;52.968;8.844;2023-05-01T14:51:50;1.50;;;1.38;;
20890;SDS011;10605;52.968;8.844;2023-05-01T14:54:17;1.20;;;1.10;;
20890;SDS011;10605;52.968;8.844;2023-05-01T14:56:44;2.05;;;0.95;;
20890;SDS011;10605;52.968;8.844;2023-05-01T14:59:11;4.03;;;1.38;;
20890;SDS011;10605;52.968;8.844;2023-05-01T15:01:37;1.50;;;1.30;;
20890;SDS011;10605;52.968;8.844;2023-05-01T15:04:04;9.00;;;2.15;;
20890;SDS011;10605;52.968;8.844;2023-05-01T15:06:31;2.63;;;1.00;;
20890;SDS011;10605;52.968;8.844;2023-05-01T15:08:57;3.25;;;0.90;;
20890;SDS011;10605;52.968;8.844;2023-05-01T15:11:23;5.78;;;1.58;;
20890;SDS011;10605;52.968;8.844;2023-05-01T15:13:49;8.68;;;1.70;;
20890;SDS011;10605;52.968;8.844;2023-05-01T15:16:15;1.90;;;1.77;;
20890;SDS011;10605;52.968;8.844;2023-05-01T15:18:41;5.18;;;1.50;;
20890;SDS011;10605;52.968;8.844;2023-05-01T15:21:06;2.30;;;1.55;;
20890;SDS011;10605;52.968;8.844;2023-05-01T15:23:32;1.70;;;1.60;;
20890;SDS011;10605;52.968;8.844;2023-05-01T15:25:58;2.75;;;1.42;;
20890;SDS011;10605;52.968;8.844;2023-05-01T15:28:25;2.75;;;1.60;;
20890;SDS011;10605;52.968;8.844;2023-05-01T15:30:51;2.95;;;2.38;;
20890;SDS011;10605;52.968;8.844;2023-05-01T15:33:17;3.70;;;2.38;;